Festina Lente — WDG6466 — position and weather

sailwx.info

Track history (hours):
 
Tides and Currents Weather Stations Pressure Air Temp Water Temp Dewpoint Dewpoint Depression Visibility Wind Speed Wind Dir Waves Ship Positions

Festina Lente

Owner: PK Ocean Charters, LLC, Sunnyvale, CA. More information available from US FCC via Universal Licensing System and Coast Guard Vessel Documentation Center.

Last reported at 2017-Dec-10 03:47 UTC. Time now 2017-Dec-16 07:02 UTC.
Position N 37°31' W 122°12'.

Length 14 m.

Type: Sailing vessel. MMSI: 367557310.

Date/timePositionNaut miles runAvg speedWind from/ knotsBaromVisibWave heightAir tempDewpointWater temp
2017-Dec-10 03:47N 37°31' W 122°12'2 5.5
2017-Dec-10 03:26N 37°33' W 122°12'3 6.0
2017-Dec-10 02:57N 37°35' W 122°15'3 6.8
2017-Dec-10 02:30N 37°37' W 122°17'4 7.2
2017-Dec-10 02:00N 37°40' W 122°20'3 6.9
2017-Dec-10 01:30N 37°43' W 122°21'3 6.9
2017-Dec-10 01:00N 37°47' W 122°23'3 6.0
2017-Dec-10 00:30N 37°49' W 122°25'2 4.5
2017-Dec-10 00:00N 37°51' W 122°26'1 2.9
2017-Dec-09 23:30N 37°52' W 122°26'2 3.4
2017-Dec-09 23:00N 37°52' W 122°24'2 3.7
2017-Dec-09 22:30N 37°50' W 122°24'2 4.0
2017-Dec-09 22:00N 37°48' W 122°23'2 3.4
2017-Dec-09 21:30N 37°46' W 122°22'3 6.3
2017-Dec-09 21:00N 37°43' W 122°21'3 6.8
2017-Dec-09 20:31N 37°40' W 122°20'4 7.3
2017-Dec-09 20:01N 37°37' W 122°17'4 7.7
2017-Dec-09 19:30N 37°34' W 122°14'  
Track history (hours):
 
Tides and Currents Weather Stations Pressure Air Temp Water Temp Dewpoint Dewpoint Depression Visibility Wind Speed Wind Dir Waves Ship Positions

Festina Lente

Owner: PK Ocean Charters, LLC, Sunnyvale, CA. More information available from US FCC via Universal Licensing System and Coast Guard Vessel Documentation Center.

Last reported at 2017-Dec-10 03:47 UTC. Time now 2017-Dec-16 07:02 UTC.
Position N 37°31' W 122°12'.

Length 14 m.

Type: Sailing vessel. MMSI: 367557310.

Date/timePositionNaut miles runAvg speedWind from/ knotsBaromVisibWave heightAir tempDewpointWater temp
2017-Dec-10 03:47N 37°31' W 122°12'2 5.5
2017-Dec-10 03:26N 37°33' W 122°12'3 6.0
2017-Dec-10 02:57N 37°35' W 122°15'3 6.8
2017-Dec-10 02:30N 37°37' W 122°17'4 7.2
2017-Dec-10 02:00N 37°40' W 122°20'3 6.9
2017-Dec-10 01:30N 37°43' W 122°21'3 6.9
2017-Dec-10 01:00N 37°47' W 122°23'3 6.0
2017-Dec-10 00:30N 37°49' W 122°25'2 4.5
2017-Dec-10 00:00N 37°51' W 122°26'1 2.9
2017-Dec-09 23:30N 37°52' W 122°26'2 3.4
2017-Dec-09 23:00N 37°52' W 122°24'2 3.7
2017-Dec-09 22:30N 37°50' W 122°24'2 4.0
2017-Dec-09 22:00N 37°48' W 122°23'2 3.4
2017-Dec-09 21:30N 37°46' W 122°22'3 6.3
2017-Dec-09 21:00N 37°43' W 122°21'3 6.8
2017-Dec-09 20:31N 37°40' W 122°20'4 7.3
2017-Dec-09 20:01N 37°37' W 122°17'4 7.7
2017-Dec-09 19:30N 37°34' W 122°14'  

Dump ship's entire track history